This is the latest recevied weather packets stored in our database for station/object N7CW. If no packets are shown the sender has not sent any weather packets the latest 10 day(s).
| Time | Temp. | Humidity | Pressure | Rain* | Wind** | Luminosity | Snow |
|---|---|---|---|---|---|---|---|
| 1777363190 | 2.78° C | 57% | 1017.3 hPa | 0 mm | - | 0 W/m² | - |
| 1777362887 | 2.22° C | 59% | 1017.3 hPa | 0 mm | - | 0 W/m² | - |
| 1777362585 | 2.78° C | 57% | 1017.4 hPa | 0 mm | - | 0 W/m² | - |
| 1777362283 | 2.78° C | 58% | 1017.5 hPa | 0 mm | - | 0 W/m² | - |
| 1777361980 | 1.67° C | 59% | 1017.4 hPa | 0 mm | - | 0 W/m² | - |
| 1777361677 | 1.11° C | 62% | 1017.4 hPa | 0 mm | - | 0 W/m² | - |
| 1777361374 | 0.56° C | 62% | 1017.5 hPa | 0 mm | - | 0 W/m² | - |
| 1777361070 | 0.56° C | 61% | 1017.8 hPa | 0 mm | - | 0 W/m² | - |
| 1777360763 | 1.11° C | 61% | 1017.5 hPa | 0 mm | - | 0 W/m² | - |
| 1777360460 | 1.11° C | 60% | 1017.4 hPa | 0 mm | - | 0 W/m² | - |
| 1777360157 | 2.22° C | 58% | 1017.3 hPa | 0 mm | - | 0 W/m² | - |
| 1777359854 | 2.22° C | 58% | 1017.3 hPa | 0 mm | - | 0 W/m² | - |
| 1777359551 | 3.89° C | 54% | 1017.2 hPa | 0 mm | - | 0 W/m² | - |
| 1777359247 | 4.44° C | 52% | 1017.3 hPa | 0 mm | - | 0 W/m² | - |
| 1777358945 | 5° C | 52% | 1017.4 hPa | 0 mm | - | 0 W/m² | - |
| 1777358643 | 5° C | 51% | 1017.4 hPa | 0 mm | - | 0 W/m² | - |
| 1777358340 | 4.44° C | 52% | 1017.4 hPa | 0 mm | - | 0 W/m² | - |
| 1777358038 | 3.89° C | 52% | 1017.4 hPa | 0 mm | - | 0 W/m² | - |
| 1777357735 | 3.33° C | 54% | 1017.3 hPa | 0 mm | - | 0 W/m² | - |
| 1777357431 | 4.44° C | 51% | 1017.2 hPa | 0 mm | - | 0 W/m² | - |
| 1777357128 | 5.56° C | 46% | 1017.2 hPa | 0 mm | - | 0 W/m² | - |
| 1777356825 | 5.56° C | 48% | 1017.3 hPa | 0 mm | - | 0 W/m² | - |
| 1777356523 | 6.11° C | 47% | 1017.1 hPa | 0 mm | - | 0 W/m² | - |
| 1777356220 | 6.67° C | 46% | 1017.2 hPa | 0 mm | - | 0 W/m² | - |
| 1777355916 | 6.67° C | 46% | 1017.3 hPa | 0 mm | - | 0 W/m² | - |
* Rain latest hour (hover to see other rain measurements)
** Current wind speed in m/s (hover to see current wind gust speed)